KIMT/IMT METAR and TAF weather

Enter ICAO airport designator
Station Type Date Time Source
KIMT METAR 2019/09/21 21:30 UTC NOAA

KIMT 212130Z AUTO 18008KT 10SM BKN014 BKN019 OVC037 23/20 A2985 RMK AO2 T02280200


Station Type Date Time Source
KIMT Decoded METAR 2019/09/21 21:30 UTC NOAA

IRON MOUNTAIN FORD AIRPORT, MI, United States (KIMT) 45-49N 88-07W 349M
Sep 21, 2019 - 05:30 PM EDT / 2019.09.21 2130 UTC
Wind: from the S (180 degrees) at 9 MPH (8 KT):0
Visibility: 10 mile(s):0
Sky conditions: overcast
Temperature: 73.0 F (22.8 C)
Dew Point: 68.0 F (20.0 C)
Relative Humidity: 84%
Pressure (altimeter): 29.85 in. Hg (1010 hPa)
ob: KIMT 212130Z AUTO 18008KT 10SM BKN014 BKN019 OVC037 23/20 A2985 RMK AO2 T02280200
cycle: 21

Station Type Date Time Source
KIMT TAF UTC NOAA

Error!

Example: see airport list